sensor_id;sensor_type;location;lat;lon;timestamp;P1;durP1;ratioP1;P2;durP2;ratioP2
4698;SDS011;33708;49.466;11.176;2024-02-15T00:01:57;7.50;;;4.80;;
4698;SDS011;33708;49.466;11.176;2024-02-15T00:04:22;10.93;;;6.00;;
4698;SDS011;33708;49.466;11.176;2024-02-15T00:06:48;10.40;;;5.30;;
4698;SDS011;33708;49.466;11.176;2024-02-15T00:09:13;7.83;;;5.20;;
4698;SDS011;33708;49.466;11.176;2024-02-15T00:11:39;7.20;;;5.00;;
4698;SDS011;33708;49.466;11.176;2024-02-15T00:14:05;7.87;;;4.93;;
4698;SDS011;33708;49.466;11.176;2024-02-15T00:16:31;9.40;;;5.40;;
4698;SDS011;33708;49.466;11.176;2024-02-15T00:18:56;12.80;;;5.73;;
4698;SDS011;33708;49.466;11.176;2024-02-15T00:21:22;15.53;;;6.63;;
4698;SDS011;33708;49.466;11.176;2024-02-15T00:23:48;11.60;;;5.63;;
4698;SDS011;33708;49.466;11.176;2024-02-15T00:26:14;8.80;;;5.10;;
4698;SDS011;33708;49.466;11.176;2024-02-15T00:28:43;9.90;;;5.13;;
4698;SDS011;33708;49.466;11.176;2024-02-15T00:31:08;9.43;;;6.40;;
4698;SDS011;33708;49.466;11.176;2024-02-15T00:33:34;11.70;;;5.13;;
4698;SDS011;33708;49.466;11.176;2024-02-15T00:36:03;6.77;;;4.93;;
4698;SDS011;33708;49.466;11.176;2024-02-15T00:38:31;10.10;;;5.67;;
4698;SDS011;33708;49.466;11.176;2024-02-15T00:40:57;11.10;;;6.00;;
4698;SDS011;33708;49.466;11.176;2024-02-15T00:43:24;11.10;;;6.33;;
4698;SDS011;33708;49.466;11.176;2024-02-15T00:45:51;9.23;;;5.70;;
4698;SDS011;33708;49.466;11.176;2024-02-15T00:48:17;10.00;;;5.83;;
4698;SDS011;33708;49.466;11.176;2024-02-15T00:50:42;14.60;;;5.97;;
4698;SDS011;33708;49.466;11.176;2024-02-15T00:53:08;9.80;;;5.33;;
4698;SDS011;33708;49.466;11.176;2024-02-15T00:55:33;12.13;;;4.70;;
4698;SDS011;33708;49.466;11.176;2024-02-15T00:57:59;9.90;;;4.87;;
4698;SDS011;33708;49.466;11.176;2024-02-15T01:00:24;15.83;;;5.37;;
4698;SDS011;33708;49.466;11.176;2024-02-15T01:02:51;9.60;;;5.70;;
4698;SDS011;33708;49.466;11.176;2024-02-15T01:05:18;9.00;;;5.40;;
4698;SDS011;33708;49.466;11.176;2024-02-15T01:07:44;6.90;;;4.30;;
4698;SDS011;33708;49.466;11.176;2024-02-15T01:10:09;11.73;;;4.63;;
4698;SDS011;33708;49.466;11.176;2024-02-15T01:12:35;7.70;;;5.00;;
4698;SDS011;33708;49.466;11.176;2024-02-15T01:15:01;7.90;;;5.07;;
4698;SDS011;33708;49.466;11.176;2024-02-15T01:17:27;11.00;;;5.20;;
4698;SDS011;33708;49.466;11.176;2024-02-15T01:19:53;10.27;;;5.40;;
4698;SDS011;33708;49.466;11.176;2024-02-15T01:22:19;10.40;;;6.17;;
4698;SDS011;33708;49.466;11.176;2024-02-15T01:24:48;7.43;;;5.07;;
4698;SDS011;33708;49.466;11.176;2024-02-15T01:27:14;12.70;;;5.50;;
4698;SDS011;33708;49.466;11.176;2024-02-15T01:29:39;7.77;;;5.27;;
4698;SDS011;33708;49.466;11.176;2024-02-15T01:32:05;15.40;;;6.80;;
4698;SDS011;33708;49.466;11.176;2024-02-15T01:34:30;11.10;;;5.70;;
4698;SDS011;33708;49.466;11.176;2024-02-15T01:36:57;11.13;;;5.87;;
4698;SDS011;33708;49.466;11.176;2024-02-15T01:39:23;10.33;;;4.60;;
4698;SDS011;33708;49.466;11.176;2024-02-15T01:41:48;10.17;;;5.37;;
4698;SDS011;33708;49.466;11.176;2024-02-15T01:44:20;15.67;;;5.43;;
4698;SDS011;33708;49.466;11.176;2024-02-15T01:46:48;11.53;;;5.83;;
4698;SDS011;33708;49.466;11.176;2024-02-15T01:49:21;10.67;;;6.60;;
4698;SDS011;33708;49.466;11.176;2024-02-15T01:51:47;11.20;;;5.83;;
4698;SDS011;33708;49.466;11.176;2024-02-15T01:54:18;10.30;;;5.07;;
4698;SDS011;33708;49.466;11.176;2024-02-15T01:56:45;12.83;;;6.00;;
4698;SDS011;33708;49.466;11.176;2024-02-15T01:59:11;10.03;;;4.70;;
4698;SDS011;33708;49.466;11.176;2024-02-15T02:01:39;10.40;;;4.80;;
4698;SDS011;33708;49.466;11.176;2024-02-15T02:04:06;14.37;;;6.37;;
4698;SDS011;33708;49.466;11.176;2024-02-15T02:06:33;9.00;;;4.10;;
4698;SDS011;33708;49.466;11.176;2024-02-15T02:08:59;14.43;;;5.23;;
4698;SDS011;33708;49.466;11.176;2024-02-15T02:11:24;6.70;;;4.30;;
4698;SDS011;33708;49.466;11.176;2024-02-15T02:13:51;11.57;;;5.77;;
4698;SDS011;33708;49.466;11.176;2024-02-15T02:16:27;8.83;;;4.33;;
4698;SDS011;33708;49.466;11.176;2024-02-15T02:18:56;5.27;;;3.87;;
4698;SDS011;33708;49.466;11.176;2024-02-15T02:21:23;6.53;;;4.50;;
4698;SDS011;33708;49.466;11.176;2024-02-15T02:23:57;6.57;;;4.63;;
4698;SDS011;33708;49.466;11.176;2024-02-15T02:26:23;7.30;;;4.60;;
4698;SDS011;33708;49.466;11.176;2024-02-15T02:28:50;8.03;;;4.90;;
4698;SDS011;33708;49.466;11.176;2024-02-15T02:31:18;8.67;;;4.97;;
4698;SDS011;33708;49.466;11.176;2024-02-15T02:33:49;9.13;;;5.30;;
4698;SDS011;33708;49.466;11.176;2024-02-15T02:36:19;8.80;;;4.90;;
4698;SDS011;33708;49.466;11.176;2024-02-15T02:38:45;8.43;;;4.50;;
4698;SDS011;33708;49.466;11.176;2024-02-15T02:41:14;8.70;;;5.40;;
4698;SDS011;33708;49.466;11.176;2024-02-15T02:43:41;8.80;;;4.20;;
4698;SDS011;33708;49.466;11.176;2024-02-15T02:46:06;8.17;;;4.53;;
4698;SDS011;33708;49.466;11.176;2024-02-15T02:48:35;7.33;;;4.47;;
4698;SDS011;33708;49.466;11.176;2024-02-15T02:51:01;7.17;;;4.80;;
4698;SDS011;33708;49.466;11.176;2024-02-15T02:53:27;8.60;;;4.60;;
4698;SDS011;33708;49.466;11.176;2024-02-15T02:55:53;7.00;;;4.63;;
4698;SDS011;33708;49.466;11.176;2024-02-15T02:58:21;7.60;;;4.23;;
4698;SDS011;33708;49.466;11.176;2024-02-15T03:00:48;8.83;;;4.43;;
4698;SDS011;33708;49.466;11.176;2024-02-15T03:03:14;8.30;;;4.33;;
4698;SDS011;33708;49.466;11.176;2024-02-15T03:05:40;8.17;;;5.30;;
4698;SDS011;33708;49.466;11.176;2024-02-15T03:08:07;11.03;;;5.23;;
4698;SDS011;33708;49.466;11.176;2024-02-15T03:10:33;6.40;;;4.57;;
4698;SDS011;33708;49.466;11.176;2024-02-15T03:13:03;7.23;;;4.37;;
4698;SDS011;33708;49.466;11.176;2024-02-15T03:15:30;11.30;;;4.47;;
4698;SDS011;33708;49.466;11.176;2024-02-15T03:17:58;8.87;;;4.50;;
4698;SDS011;33708;49.466;11.176;2024-02-15T03:20:23;7.37;;;4.90;;
4698;SDS011;33708;49.466;11.176;2024-02-15T03:22:53;10.70;;;4.80;;
4698;SDS011;33708;49.466;11.176;2024-02-15T03:25:19;7.13;;;3.83;;
4698;SDS011;33708;49.466;11.176;2024-02-15T03:27:44;6.00;;;3.80;;
4698;SDS011;33708;49.466;11.176;2024-02-15T03:30:10;6.93;;;4.70;;
4698;SDS011;33708;49.466;11.176;2024-02-15T03:32:37;5.30;;;3.67;;
4698;SDS011;33708;49.466;11.176;2024-02-15T03:35:02;6.40;;;4.20;;
4698;SDS011;33708;49.466;11.176;2024-02-15T03:37:28;7.73;;;4.30;;
4698;SDS011;33708;49.466;11.176;2024-02-15T03:39:54;11.33;;;5.83;;
4698;SDS011;33708;49.466;11.176;2024-02-15T03:42:20;14.13;;;4.40;;
4698;SDS011;33708;49.466;11.176;2024-02-15T03:44:45;11.07;;;5.40;;
4698;SDS011;33708;49.466;11.176;2024-02-15T03:47:12;6.20;;;4.30;;
4698;SDS011;33708;49.466;11.176;2024-02-15T03:49:38;7.90;;;4.80;;
4698;SDS011;33708;49.466;11.176;2024-02-15T03:52:06;10.03;;;5.50;;
4698;SDS011;33708;49.466;11.176;2024-02-15T03:54:33;6.27;;;4.10;;
4698;SDS011;33708;49.466;11.176;2024-02-15T03:56:59;6.47;;;3.80;;
4698;SDS011;33708;49.466;11.176;2024-02-15T03:59:25;7.87;;;4.00;;
4698;SDS011;33708;49.466;11.176;2024-02-15T04:01:54;9.23;;;4.50;;
4698;SDS011;33708;49.466;11.176;2024-02-15T04:04:22;8.43;;;4.10;;
4698;SDS011;33708;49.466;11.176;2024-02-15T04:06:48;6.90;;;5.03;;
4698;SDS011;33708;49.466;11.176;2024-02-15T04:09:17;7.93;;;4.90;;
4698;SDS011;33708;49.466;11.176;2024-02-15T04:11:46;6.70;;;4.37;;
4698;SDS011;33708;49.466;11.176;2024-02-15T04:14:15;6.00;;;4.00;;
4698;SDS011;33708;49.466;11.176;2024-02-15T04:16:43;8.13;;;3.97;;
4698;SDS011;33708;49.466;11.176;2024-02-15T04:19:09;6.93;;;4.30;;
4698;SDS011;33708;49.466;11.176;2024-02-15T04:21:38;6.27;;;3.77;;
4698;SDS011;33708;49.466;11.176;2024-02-15T04:24:05;8.20;;;4.70;;
4698;SDS011;33708;49.466;11.176;2024-02-15T04:26:30;8.60;;;4.90;;
4698;SDS011;33708;49.466;11.176;2024-02-15T04:28:57;10.50;;;6.10;;
4698;SDS011;33708;49.466;11.176;2024-02-15T04:31:23;10.50;;;5.27;;
4698;SDS011;33708;49.466;11.176;2024-02-15T04:33:54;16.13;;;6.20;;
4698;SDS011;33708;49.466;11.176;2024-02-15T04:36:20;6.53;;;5.00;;
4698;SDS011;33708;49.466;11.176;2024-02-15T04:38:50;8.57;;;5.73;;
4698;SDS011;33708;49.466;11.176;2024-02-15T04:41:16;10.93;;;5.03;;
4698;SDS011;33708;49.466;11.176;2024-02-15T04:43:48;12.10;;;5.90;;
4698;SDS011;33708;49.466;11.176;2024-02-15T04:46:14;14.50;;;5.80;;
4698;SDS011;33708;49.466;11.176;2024-02-15T04:48:40;11.40;;;5.03;;
4698;SDS011;33708;49.466;11.176;2024-02-15T04:51:09;10.03;;;6.27;;
4698;SDS011;33708;49.466;11.176;2024-02-15T04:53:38;8.30;;;6.10;;
4698;SDS011;33708;49.466;11.176;2024-02-15T04:56:05;10.10;;;5.47;;
4698;SDS011;33708;49.466;11.176;2024-02-15T04:58:36;7.90;;;5.37;;
4698;SDS011;33708;49.466;11.176;2024-02-15T05:01:03;8.23;;;5.07;;
4698;SDS011;33708;49.466;11.176;2024-02-15T05:03:30;7.10;;;5.33;;
4698;SDS011;33708;49.466;11.176;2024-02-15T05:05:59;9.50;;;5.50;;
4698;SDS011;33708;49.466;11.176;2024-02-15T05:08:26;16.30;;;5.97;;
4698;SDS011;33708;49.466;11.176;2024-02-15T05:10:51;7.97;;;5.70;;
4698;SDS011;33708;49.466;11.176;2024-02-15T05:13:21;11.10;;;6.63;;
4698;SDS011;33708;49.466;11.176;2024-02-15T05:15:49;6.60;;;5.07;;
4698;SDS011;33708;49.466;11.176;2024-02-15T05:18:14;7.40;;;5.13;;
4698;SDS011;33708;49.466;11.176;2024-02-15T05:20:41;11.33;;;6.30;;
4698;SDS011;33708;49.466;11.176;2024-02-15T05:23:07;11.40;;;5.50;;
4698;SDS011;33708;49.466;11.176;2024-02-15T05:25:33;12.83;;;6.03;;
4698;SDS011;33708;49.466;11.176;2024-02-15T05:28:00;12.33;;;5.30;;
4698;SDS011;33708;49.466;11.176;2024-02-15T05:30:26;13.23;;;5.70;;
4698;SDS011;33708;49.466;11.176;2024-02-15T05:32:52;9.73;;;5.90;;
4698;SDS011;33708;49.466;11.176;2024-02-15T05:35:18;10.80;;;5.40;;
4698;SDS011;33708;49.466;11.176;2024-02-15T05:37:43;7.83;;;4.97;;
4698;SDS011;33708;49.466;11.176;2024-02-15T05:40:10;8.90;;;5.10;;
4698;SDS011;33708;49.466;11.176;2024-02-15T05:42:41;8.50;;;5.33;;
4698;SDS011;33708;49.466;11.176;2024-02-15T05:47:49;9.10;;;4.70;;
4698;SDS011;33708;49.466;11.176;2024-02-15T05:50:15;11.37;;;5.20;;
4698;SDS011;33708;49.466;11.176;2024-02-15T05:52:41;9.73;;;4.90;;
4698;SDS011;33708;49.466;11.176;2024-02-15T05:55:07;8.17;;;4.43;;
4698;SDS011;33708;49.466;11.176;2024-02-15T05:57:33;9.10;;;5.37;;
4698;SDS011;33708;49.466;11.176;2024-02-15T05:59:58;9.40;;;5.97;;
4698;SDS011;33708;49.466;11.176;2024-02-15T06:02:28;9.97;;;5.03;;
4698;SDS011;33708;49.466;11.176;2024-02-15T06:04:55;11.20;;;4.40;;
4698;SDS011;33708;49.466;11.176;2024-02-15T06:07:26;11.40;;;4.23;;
4698;SDS011;33708;49.466;11.176;2024-02-15T06:09:51;14.90;;;5.43;;
4698;SDS011;33708;49.466;11.176;2024-02-15T06:12:17;6.33;;;3.40;;
4698;SDS011;33708;49.466;11.176;2024-02-15T06:14:42;8.60;;;4.57;;
4698;SDS011;33708;49.466;11.176;2024-02-15T06:17:08;6.23;;;4.30;;
4698;SDS011;33708;49.466;11.176;2024-02-15T06:19:35;8.67;;;4.90;;
4698;SDS011;33708;49.466;11.176;2024-02-15T06:22:01;11.10;;;5.13;;
4698;SDS011;33708;49.466;11.176;2024-02-15T06:24:26;11.77;;;5.50;;
4698;SDS011;33708;49.466;11.176;2024-02-15T06:26:54;10.70;;;4.80;;
4698;SDS011;33708;49.466;11.176;2024-02-15T06:29:24;9.03;;;4.60;;
4698;SDS011;33708;49.466;11.176;2024-02-15T06:32:09;7.80;;;4.47;;
4698;SDS011;33708;49.466;11.176;2024-02-15T06:34:53;9.00;;;4.10;;
4698;SDS011;33708;49.466;11.176;2024-02-15T06:37:38;10.23;;;5.10;;
4698;SDS011;33708;49.466;11.176;2024-02-15T06:40:23;8.53;;;5.07;;
4698;SDS011;33708;49.466;11.176;2024-02-15T06:42:50;9.83;;;5.77;;
4698;SDS011;33708;49.466;11.176;2024-02-15T06:45:16;10.40;;;5.47;;
4698;SDS011;33708;49.466;11.176;2024-02-15T06:47:42;11.30;;;7.50;;
4698;SDS011;33708;49.466;11.176;2024-02-15T06:50:10;11.40;;;5.80;;
4698;SDS011;33708;49.466;11.176;2024-02-15T06:52:37;11.43;;;5.47;;
4698;SDS011;33708;49.466;11.176;2024-02-15T06:55:03;13.70;;;5.13;;
4698;SDS011;33708;49.466;11.176;2024-02-15T06:57:30;10.23;;;6.00;;
4698;SDS011;33708;49.466;11.176;2024-02-15T06:59:56;9.80;;;5.30;;
4698;SDS011;33708;49.466;11.176;2024-02-15T07:02:21;10.03;;;6.33;;
4698;SDS011;33708;49.466;11.176;2024-02-15T07:04:48;7.97;;;5.77;;
4698;SDS011;33708;49.466;11.176;2024-02-15T07:07:14;10.90;;;5.43;;
4698;SDS011;33708;49.466;11.176;2024-02-15T07:09:40;12.13;;;6.27;;
4698;SDS011;33708;49.466;11.176;2024-02-15T07:12:06;13.90;;;6.67;;
4698;SDS011;33708;49.466;11.176;2024-02-15T07:14:32;13.90;;;6.27;;
4698;SDS011;33708;49.466;11.176;2024-02-15T07:16:57;11.37;;;4.93;;
4698;SDS011;33708;49.466;11.176;2024-02-15T07:19:23;10.60;;;4.70;;
4698;SDS011;33708;49.466;11.176;2024-02-15T07:21:49;7.80;;;5.10;;
4698;SDS011;33708;49.466;11.176;2024-02-15T07:24:16;12.83;;;5.60;;
4698;SDS011;33708;49.466;11.176;2024-02-15T07:26:41;8.70;;;4.70;;
4698;SDS011;33708;49.466;11.176;2024-02-15T07:29:07;8.20;;;5.07;;
4698;SDS011;33708;49.466;11.176;2024-02-15T07:31:33;10.43;;;5.97;;
4698;SDS011;33708;49.466;11.176;2024-02-15T07:33:59;99.23;;;58.57;;
4698;SDS011;33708;49.466;11.176;2024-02-15T07:36:25;51.93;;;32.13;;
4698;SDS011;33708;49.466;11.176;2024-02-15T07:38:51;58.63;;;36.83;;
4698;SDS011;33708;49.466;11.176;2024-02-15T07:41:18;24.07;;;13.50;;
4698;SDS011;33708;49.466;11.176;2024-02-15T07:43:47;23.50;;;16.60;;
4698;SDS011;33708;49.466;11.176;2024-02-15T07:46:16;11.10;;;6.93;;
4698;SDS011;33708;49.466;11.176;2024-02-15T07:48:42;12.00;;;6.83;;
4698;SDS011;33708;49.466;11.176;2024-02-15T07:51:15;10.30;;;6.33;;
4698;SDS011;33708;49.466;11.176;2024-02-15T07:53:43;10.37;;;6.50;;
4698;SDS011;33708;49.466;11.176;2024-02-15T07:56:09;9.77;;;6.27;;
4698;SDS011;33708;49.466;11.176;2024-02-15T07:58:38;10.87;;;6.53;;
4698;SDS011;33708;49.466;11.176;2024-02-15T08:01:12;8.80;;;5.30;;
4698;SDS011;33708;49.466;11.176;2024-02-15T08:03:38;12.30;;;5.90;;
4698;SDS011;33708;49.466;11.176;2024-02-15T08:06:09;8.70;;;5.20;;
4698;SDS011;33708;49.466;11.176;2024-02-15T08:08:37;11.00;;;5.60;;
4698;SDS011;33708;49.466;11.176;2024-02-15T08:11:07;12.57;;;7.93;;
4698;SDS011;33708;49.466;11.176;2024-02-15T08:13:49;12.70;;;8.20;;
4698;SDS011;33708;49.466;11.176;2024-02-15T08:16:19;11.73;;;7.60;;
4698;SDS011;33708;49.466;11.176;2024-02-15T08:18:47;10.90;;;6.80;;
4698;SDS011;33708;49.466;11.176;2024-02-15T08:21:17;8.80;;;4.80;;
4698;SDS011;33708;49.466;11.176;2024-02-15T08:23:42;10.00;;;5.40;;
4698;SDS011;33708;49.466;11.176;2024-02-15T08:26:08;10.17;;;5.70;;
4698;SDS011;33708;49.466;11.176;2024-02-15T08:28:36;7.13;;;3.57;;
4698;SDS011;33708;49.466;11.176;2024-02-15T08:31:01;11.00;;;3.23;;
4698;SDS011;33708;49.466;11.176;2024-02-15T08:33:28;8.50;;;4.50;;
4698;SDS011;33708;49.466;11.176;2024-02-15T08:35:55;8.53;;;3.40;;
4698;SDS011;33708;49.466;11.176;2024-02-15T08:38:24;4.80;;;2.40;;
4698;SDS011;33708;49.466;11.176;2024-02-15T08:40:50;8.60;;;3.40;;
4698;SDS011;33708;49.466;11.176;2024-02-15T08:43:16;8.43;;;2.90;;
4698;SDS011;33708;49.466;11.176;2024-02-15T08:45:42;5.03;;;2.43;;
4698;SDS011;33708;49.466;11.176;2024-02-15T08:48:08;8.03;;;3.30;;
4698;SDS011;33708;49.466;11.176;2024-02-15T08:50:34;7.30;;;3.53;;
4698;SDS011;33708;49.466;11.176;2024-02-15T08:53:00;5.10;;;3.00;;
4698;SDS011;33708;49.466;11.176;2024-02-15T08:55:26;7.20;;;3.17;;
4698;SDS011;33708;49.466;11.176;2024-02-15T08:57:53;11.10;;;3.40;;
4698;SDS011;33708;49.466;11.176;2024-02-15T09:00:19;7.80;;;3.93;;
4698;SDS011;33708;49.466;11.176;2024-02-15T09:02:45;6.63;;;4.10;;
4698;SDS011;33708;49.466;11.176;2024-02-15T09:05:14;8.73;;;3.73;;
4698;SDS011;33708;49.466;11.176;2024-02-15T09:07:43;7.67;;;4.47;;
4698;SDS011;33708;49.466;11.176;2024-02-15T09:10:12;11.10;;;3.87;;
4698;SDS011;33708;49.466;11.176;2024-02-15T09:12:39;11.67;;;4.37;;
4698;SDS011;33708;49.466;11.176;2024-02-15T09:15:09;10.50;;;5.00;;
4698;SDS011;33708;49.466;11.176;2024-02-15T09:17:35;10.10;;;4.63;;
4698;SDS011;33708;49.466;11.176;2024-02-15T09:20:08;9.30;;;4.20;;
4698;SDS011;33708;49.466;11.176;2024-02-15T09:22:39;10.40;;;5.00;;
4698;SDS011;33708;49.466;11.176;2024-02-15T09:25:19;10.63;;;4.10;;
4698;SDS011;33708;49.466;11.176;2024-02-15T09:27:49;5.50;;;3.30;;
4698;SDS011;33708;49.466;11.176;2024-02-15T09:30:15;11.23;;;4.13;;
4698;SDS011;33708;49.466;11.176;2024-02-15T09:32:42;8.80;;;3.90;;
4698;SDS011;33708;49.466;11.176;2024-02-15T09:35:08;8.90;;;3.70;;
4698;SDS011;33708;49.466;11.176;2024-02-15T09:37:46;8.30;;;3.93;;
4698;SDS011;33708;49.466;11.176;2024-02-15T09:40:17;7.90;;;3.50;;
4698;SDS011;33708;49.466;11.176;2024-02-15T09:42:44;8.33;;;3.73;;
4698;SDS011;33708;49.466;11.176;2024-02-15T09:45:13;10.77;;;3.83;;
4698;SDS011;33708;49.466;11.176;2024-02-15T09:47:43;6.53;;;3.53;;
4698;SDS011;33708;49.466;11.176;2024-02-15T09:50:13;15.27;;;3.40;;
4698;SDS011;33708;49.466;11.176;2024-02-15T09:52:42;8.50;;;3.47;;
4698;SDS011;33708;49.466;11.176;2024-02-15T09:55:09;8.17;;;3.47;;
4698;SDS011;33708;49.466;11.176;2024-02-15T09:57:40;7.87;;;3.70;;
4698;SDS011;33708;49.466;11.176;2024-02-15T10:00:07;5.77;;;3.60;;
4698;SDS011;33708;49.466;11.176;2024-02-15T10:02:38;7.17;;;3.83;;
4698;SDS011;33708;49.466;11.176;2024-02-15T10:05:06;8.30;;;5.00;;
4698;SDS011;33708;49.466;11.176;2024-02-15T10:07:36;10.03;;;4.97;;
4698;SDS011;33708;49.466;11.176;2024-02-15T10:12:44;7.07;;;2.87;;
4698;SDS011;33708;49.466;11.176;2024-02-15T10:18:00;8.50;;;3.60;;
4698;SDS011;33708;49.466;11.176;2024-02-15T10:20:27;8.47;;;3.30;;
4698;SDS011;33708;49.466;11.176;2024-02-15T10:25:25;7.13;;;3.43;;
4698;SDS011;33708;49.466;11.176;2024-02-15T10:27:53;6.47;;;2.87;;
4698;SDS011;33708;49.466;11.176;2024-02-15T10:30:36;7.53;;;3.10;;
4698;SDS011;33708;49.466;11.176;2024-02-15T10:33:10;11.57;;;3.53;;
4698;SDS011;33708;49.466;11.176;2024-02-15T10:35:50;7.33;;;2.10;;
4698;SDS011;33708;49.466;11.176;2024-02-15T10:38:31;8.63;;;3.67;;
4698;SDS011;33708;49.466;11.176;2024-02-15T10:41:02;8.90;;;3.53;;
4698;SDS011;33708;49.466;11.176;2024-02-15T10:43:33;6.70;;;3.57;;
4698;SDS011;33708;49.466;11.176;2024-02-15T10:46:00;8.23;;;3.93;;
4698;SDS011;33708;49.466;11.176;2024-02-15T10:48:26;9.10;;;4.23;;
4698;SDS011;33708;49.466;11.176;2024-02-15T10:50:53;11.73;;;6.00;;
4698;SDS011;33708;49.466;11.176;2024-02-15T10:53:23;9.63;;;5.00;;
4698;SDS011;33708;49.466;11.176;2024-02-15T10:55:53;10.70;;;4.03;;
4698;SDS011;33708;49.466;11.176;2024-02-15T10:58:28;7.20;;;3.80;;
4698;SDS011;33708;49.466;11.176;2024-02-15T11:01:00;8.60;;;3.90;;
4698;SDS011;33708;49.466;11.176;2024-02-15T11:03:30;10.90;;;3.10;;
4698;SDS011;33708;49.466;11.176;2024-02-15T11:06:01;10.00;;;2.03;;
4698;SDS011;33708;49.466;11.176;2024-02-15T11:08:29;6.60;;;1.80;;
4698;SDS011;33708;49.466;11.176;2024-02-15T11:10:57;4.80;;;1.80;;
4698;SDS011;33708;49.466;11.176;2024-02-15T11:13:24;5.30;;;2.07;;
4698;SDS011;33708;49.466;11.176;2024-02-15T11:15:49;6.50;;;1.67;;
4698;SDS011;33708;49.466;11.176;2024-02-15T11:21:57;5.47;;;1.60;;
4698;SDS011;33708;49.466;11.176;2024-02-15T11:24:25;8.80;;;2.20;;
4698;SDS011;33708;49.466;11.176;2024-02-15T11:27:00;4.60;;;1.40;;
4698;SDS011;33708;49.466;11.176;2024-02-15T11:29:47;4.80;;;1.50;;
4698;SDS011;33708;49.466;11.176;2024-02-15T11:32:37;6.90;;;1.60;;
4698;SDS011;33708;49.466;11.176;2024-02-15T11:35:17;5.57;;;1.80;;
4698;SDS011;33708;49.466;11.176;2024-02-15T11:40:16;6.80;;;1.67;;
4698;SDS011;33708;49.466;11.176;2024-02-15T11:42:53;8.60;;;1.90;;
4698;SDS011;33708;49.466;11.176;2024-02-15T11:45:20;4.63;;;1.90;;
4698;SDS011;33708;49.466;11.176;2024-02-15T11:47:49;6.93;;;2.33;;
4698;SDS011;33708;49.466;11.176;2024-02-15T11:50:20;5.73;;;1.80;;
4698;SDS011;33708;49.466;11.176;2024-02-15T11:52:50;4.70;;;1.50;;
4698;SDS011;33708;49.466;11.176;2024-02-15T11:55:22;4.70;;;1.60;;
4698;SDS011;33708;49.466;11.176;2024-02-15T11:57:55;4.40;;;1.50;;
4698;SDS011;33708;49.466;11.176;2024-02-15T12:00:28;4.30;;;1.67;;
4698;SDS011;33708;49.466;11.176;2024-02-15T12:03:15;6.07;;;1.73;;
4698;SDS011;33708;49.466;11.176;2024-02-15T12:06:00;3.83;;;1.60;;
4698;SDS011;33708;49.466;11.176;2024-02-15T12:08:45;4.83;;;1.40;;
4698;SDS011;33708;49.466;11.176;2024-02-15T12:11:30;7.13;;;1.80;;
4698;SDS011;33708;49.466;11.176;2024-02-15T12:14:15;3.80;;;1.30;;
4698;SDS011;33708;49.466;11.176;2024-02-15T12:17:12;5.73;;;1.53;;
4698;SDS011;33708;49.466;11.176;2024-02-15T12:19:59;3.70;;;1.37;;
4698;SDS011;33708;49.466;11.176;2024-02-15T12:22:35;5.00;;;1.20;;
4698;SDS011;33708;49.466;11.176;2024-02-15T12:25:18;9.43;;;1.93;;
4698;SDS011;33708;49.466;11.176;2024-02-15T12:27:46;5.33;;;1.53;;
4698;SDS011;33708;49.466;11.176;2024-02-15T12:30:17;6.43;;;2.03;;
4698;SDS011;33708;49.466;11.176;2024-02-15T12:32:47;8.00;;;1.50;;
4698;SDS011;33708;49.466;11.176;2024-02-15T12:35:14;5.37;;;1.40;;
4698;SDS011;33708;49.466;11.176;2024-02-15T12:40:29;6.10;;;1.90;;
4698;SDS011;33708;49.466;11.176;2024-02-15T12:43:02;7.60;;;2.20;;
4698;SDS011;33708;49.466;11.176;2024-02-15T12:45:31;5.07;;;1.57;;
4698;SDS011;33708;49.466;11.176;2024-02-15T12:47:57;7.40;;;1.60;;
4698;SDS011;33708;49.466;11.176;2024-02-15T12:50:30;3.70;;;1.27;;
4698;SDS011;33708;49.466;11.176;2024-02-15T12:52:56;4.10;;;1.13;;
4698;SDS011;33708;49.466;11.176;2024-02-15T12:55:28;4.67;;;1.30;;
4698;SDS011;33708;49.466;11.176;2024-02-15T12:57:59;6.90;;;1.43;;
4698;SDS011;33708;49.466;11.176;2024-02-15T13:00:29;6.70;;;1.40;;
4698;SDS011;33708;49.466;11.176;2024-02-15T13:03:04;4.40;;;1.10;;
4698;SDS011;33708;49.466;11.176;2024-02-15T13:05:42;3.67;;;1.10;;
4698;SDS011;33708;49.466;11.176;2024-02-15T13:08:08;3.93;;;1.20;;
4698;SDS011;33708;49.466;11.176;2024-02-15T13:10:42;5.10;;;1.47;;
4698;SDS011;33708;49.466;11.176;2024-02-15T13:13:08;6.23;;;1.30;;
4698;SDS011;33708;49.466;11.176;2024-02-15T13:15:41;5.77;;;1.50;;
4698;SDS011;33708;49.466;11.176;2024-02-15T13:18:07;5.07;;;1.37;;
4698;SDS011;33708;49.466;11.176;2024-02-15T13:20:36;4.23;;;1.30;;
4698;SDS011;33708;49.466;11.176;2024-02-15T13:23:06;4.10;;;1.37;;
4698;SDS011;33708;49.466;11.176;2024-02-15T13:25:37;8.70;;;1.50;;
4698;SDS011;33708;49.466;11.176;2024-02-15T13:28:04;4.30;;;1.20;;
4698;SDS011;33708;49.466;11.176;2024-02-15T13:30:30;4.63;;;1.40;;
4698;SDS011;33708;49.466;11.176;2024-02-15T13:32:57;4.37;;;1.33;;
4698;SDS011;33708;49.466;11.176;2024-02-15T13:35:22;4.87;;;1.57;;
4698;SDS011;33708;49.466;11.176;2024-02-15T13:37:55;7.33;;;1.40;;
4698;SDS011;33708;49.466;11.176;2024-02-15T13:40:23;8.53;;;1.43;;
4698;SDS011;33708;49.466;11.176;2024-02-15T13:42:50;7.83;;;1.90;;
4698;SDS011;33708;49.466;11.176;2024-02-15T13:45:19;4.60;;;1.20;;
4698;SDS011;33708;49.466;11.176;2024-02-15T13:47:48;4.50;;;1.40;;
4698;SDS011;33708;49.466;11.176;2024-02-15T13:50:20;5.40;;;1.73;;
4698;SDS011;33708;49.466;11.176;2024-02-15T13:52:47;7.73;;;1.30;;
4698;SDS011;33708;49.466;11.176;2024-02-15T13:55:13;13.23;;;1.80;;
4698;SDS011;33708;49.466;11.176;2024-02-15T13:57:40;3.80;;;1.50;;
4698;SDS011;33708;49.466;11.176;2024-02-15T14:00:10;4.93;;;1.43;;
4698;SDS011;33708;49.466;11.176;2024-02-15T14:02:46;5.90;;;1.50;;
4698;SDS011;33708;49.466;11.176;2024-02-15T14:05:15;3.33;;;1.43;;
4698;SDS011;33708;49.466;11.176;2024-02-15T14:07:45;6.13;;;1.60;;
4698;SDS011;33708;49.466;11.176;2024-02-15T14:10:15;9.10;;;1.30;;
4698;SDS011;33708;49.466;11.176;2024-02-15T14:12:44;6.97;;;1.70;;
4698;SDS011;33708;49.466;11.176;2024-02-15T14:15:11;4.90;;;1.23;;
4698;SDS011;33708;49.466;11.176;2024-02-15T14:17:37;4.50;;;1.30;;
4698;SDS011;33708;49.466;11.176;2024-02-15T14:20:03;4.60;;;1.63;;
4698;SDS011;33708;49.466;11.176;2024-02-15T14:22:34;3.80;;;1.10;;
4698;SDS011;33708;49.466;11.176;2024-02-15T14:25:00;4.63;;;1.37;;
4698;SDS011;33708;49.466;11.176;2024-02-15T14:27:25;5.30;;;1.40;;
4698;SDS011;33708;49.466;11.176;2024-02-15T14:29:52;6.20;;;1.53;;
4698;SDS011;33708;49.466;11.176;2024-02-15T14:32:36;4.70;;;1.60;;
4698;SDS011;33708;49.466;11.176;2024-02-15T14:35:20;5.00;;;1.83;;
4698;SDS011;33708;49.466;11.176;2024-02-15T14:37:46;5.37;;;1.60;;
4698;SDS011;33708;49.466;11.176;2024-02-15T14:40:12;8.23;;;1.80;;
4698;SDS011;33708;49.466;11.176;2024-02-15T14:42:39;7.10;;;1.50;;
4698;SDS011;33708;49.466;11.176;2024-02-15T14:45:11;7.87;;;3.30;;
4698;SDS011;33708;49.466;11.176;2024-02-15T14:47:37;5.77;;;2.13;;
4698;SDS011;33708;49.466;11.176;2024-02-15T14:50:03;6.40;;;2.00;;
4698;SDS011;33708;49.466;11.176;2024-02-15T14:52:33;4.33;;;1.70;;
4698;SDS011;33708;49.466;11.176;2024-02-15T14:55:04;8.20;;;1.73;;
4698;SDS011;33708;49.466;11.176;2024-02-15T14:57:32;7.90;;;1.90;;
4698;SDS011;33708;49.466;11.176;2024-02-15T15:00:03;6.03;;;2.20;;
4698;SDS011;33708;49.466;11.176;2024-02-15T15:02:46;8.47;;;2.53;;
4698;SDS011;33708;49.466;11.176;2024-02-15T15:05:13;5.63;;;3.83;;
4698;SDS011;33708;49.466;11.176;2024-02-15T15:07:58;5.33;;;1.80;;
4698;SDS011;33708;49.466;11.176;2024-02-15T15:10:44;6.63;;;1.97;;
4698;SDS011;33708;49.466;11.176;2024-02-15T15:13:29;8.60;;;2.07;;